sensor_id;sensor_type;location;lat;lon;timestamp;P1;durP1;ratioP1;P2;durP2;ratioP2
55114;SDS011;41010;53.252;5.786;2023-07-20T00:02:09;0.55;;;0.55;;
55114;SDS011;41010;53.252;5.786;2023-07-20T00:04:36;0.60;;;0.50;;
55114;SDS011;41010;53.252;5.786;2023-07-20T00:07:03;0.93;;;0.50;;
55114;SDS011;41010;53.252;5.786;2023-07-20T00:09:31;0.95;;;0.50;;
55114;SDS011;41010;53.252;5.786;2023-07-20T00:11:58;0.73;;;0.40;;
55114;SDS011;41010;53.252;5.786;2023-07-20T00:14:25;1.02;;;0.50;;
55114;SDS011;41010;53.252;5.786;2023-07-20T00:16:54;0.50;;;0.50;;
55114;SDS011;41010;53.252;5.786;2023-07-20T00:19:22;0.55;;;0.47;;
55114;SDS011;41010;53.252;5.786;2023-07-20T00:21:49;0.50;;;0.50;;
55114;SDS011;41010;53.252;5.786;2023-07-20T00:24:16;3.97;;;0.60;;
55114;SDS011;41010;53.252;5.786;2023-07-20T00:26:44;0.77;;;0.50;;
55114;SDS011;41010;53.252;5.786;2023-07-20T00:29:11;0.80;;;0.50;;
55114;SDS011;41010;53.252;5.786;2023-07-20T00:31:38;3.97;;;0.60;;
55114;SDS011;41010;53.252;5.786;2023-07-20T00:34:07;0.90;;;0.70;;
55114;SDS011;41010;53.252;5.786;2023-07-20T00:36:34;1.08;;;0.60;;
55114;SDS011;41010;53.252;5.786;2023-07-20T00:39:02;4.75;;;0.52;;
55114;SDS011;41010;53.252;5.786;2023-07-20T00:41:29;0.50;;;0.45;;
55114;SDS011;41010;53.252;5.786;2023-07-20T00:43:57;0.50;;;0.43;;
55114;SDS011;41010;53.252;5.786;2023-07-20T00:46:25;0.90;;;0.57;;
55114;SDS011;41010;53.252;5.786;2023-07-20T00:48:52;2.45;;;0.60;;
55114;SDS011;41010;53.252;5.786;2023-07-20T00:51:21;1.40;;;0.50;;
55114;SDS011;41010;53.252;5.786;2023-07-20T00:53:50;0.50;;;0.40;;
55114;SDS011;41010;53.252;5.786;2023-07-20T00:56:17;1.17;;;0.52;;
55114;SDS011;41010;53.252;5.786;2023-07-20T00:58:44;4.00;;;0.57;;
55114;SDS011;41010;53.252;5.786;2023-07-20T01:01:12;0.80;;;0.60;;
55114;SDS011;41010;53.252;5.786;2023-07-20T01:03:39;1.13;;;0.55;;
55114;SDS011;41010;53.252;5.786;2023-07-20T01:06:09;8.55;;;0.57;;
55114;SDS011;41010;53.252;5.786;2023-07-20T01:08:40;0.50;;;0.40;;
55114;SDS011;41010;53.252;5.786;2023-07-20T01:11:10;0.82;;;0.50;;
55114;SDS011;41010;53.252;5.786;2023-07-20T01:13:40;1.95;;;0.63;;
55114;SDS011;41010;53.252;5.786;2023-07-20T01:16:08;0.60;;;0.40;;
55114;SDS011;41010;53.252;5.786;2023-07-20T01:18:35;1.48;;;0.63;;
55114;SDS011;41010;53.252;5.786;2023-07-20T01:21:03;2.08;;;0.52;;
55114;SDS011;41010;53.252;5.786;2023-07-20T01:26:32;0.63;;;0.50;;
55114;SDS011;41010;53.252;5.786;2023-07-20T01:29:16;0.50;;;0.50;;
55114;SDS011;41010;53.252;5.786;2023-07-20T01:31:46;1.58;;;0.65;;
55114;SDS011;41010;53.252;5.786;2023-07-20T01:34:14;4.35;;;0.60;;
55114;SDS011;41010;53.252;5.786;2023-07-20T01:36:44;3.33;;;0.60;;
55114;SDS011;41010;53.252;5.786;2023-07-20T01:39:12;0.65;;;0.57;;
55114;SDS011;41010;53.252;5.786;2023-07-20T01:41:39;0.70;;;0.65;;
55114;SDS011;41010;53.252;5.786;2023-07-20T01:44:07;1.00;;;0.80;;
55114;SDS011;41010;53.252;5.786;2023-07-20T01:46:35;1.52;;;0.73;;
55114;SDS011;41010;53.252;5.786;2023-07-20T01:49:04;0.95;;;0.70;;
55114;SDS011;41010;53.252;5.786;2023-07-20T01:51:31;1.02;;;0.70;;
55114;SDS011;41010;53.252;5.786;2023-07-20T01:53:58;0.63;;;0.60;;
55114;SDS011;41010;53.252;5.786;2023-07-20T01:56:26;1.10;;;0.90;;
55114;SDS011;41010;53.252;5.786;2023-07-20T01:58:53;1.55;;;0.90;;
55114;SDS011;41010;53.252;5.786;2023-07-20T02:01:20;3.67;;;0.73;;
55114;SDS011;41010;53.252;5.786;2023-07-20T02:03:47;2.50;;;0.85;;
55114;SDS011;41010;53.252;5.786;2023-07-20T02:06:16;1.15;;;0.80;;
55114;SDS011;41010;53.252;5.786;2023-07-20T02:08:43;1.20;;;1.00;;
55114;SDS011;41010;53.252;5.786;2023-07-20T02:11:11;5.30;;;0.80;;
55114;SDS011;41010;53.252;5.786;2023-07-20T02:13:38;3.25;;;1.00;;
55114;SDS011;41010;53.252;5.786;2023-07-20T02:16:05;3.35;;;0.90;;
55114;SDS011;41010;53.252;5.786;2023-07-20T02:18:33;1.98;;;0.88;;
55114;SDS011;41010;53.252;5.786;2023-07-20T02:21:00;3.22;;;0.90;;
55114;SDS011;41010;53.252;5.786;2023-07-20T02:23:28;1.35;;;0.90;;
55114;SDS011;41010;53.252;5.786;2023-07-20T02:25:56;1.98;;;0.90;;
55114;SDS011;41010;53.252;5.786;2023-07-20T02:28:23;2.22;;;1.17;;
55114;SDS011;41010;53.252;5.786;2023-07-20T02:30:50;0.95;;;0.82;;
55114;SDS011;41010;53.252;5.786;2023-07-20T02:33:18;2.42;;;1.00;;
55114;SDS011;41010;53.252;5.786;2023-07-20T02:35:46;1.35;;;1.00;;
55114;SDS011;41010;53.252;5.786;2023-07-20T02:38:14;1.65;;;1.20;;
55114;SDS011;41010;53.252;5.786;2023-07-20T02:40:42;1.58;;;1.00;;
55114;SDS011;41010;53.252;5.786;2023-07-20T02:43:10;2.72;;;1.05;;
55114;SDS011;41010;53.252;5.786;2023-07-20T02:45:39;1.48;;;1.10;;
55114;SDS011;41010;53.252;5.786;2023-07-20T02:48:07;1.83;;;1.10;;
55114;SDS011;41010;53.252;5.786;2023-07-20T02:50:35;2.88;;;0.90;;
55114;SDS011;41010;53.252;5.786;2023-07-20T02:53:02;1.20;;;0.85;;
55114;SDS011;41010;53.252;5.786;2023-07-20T02:55:29;2.58;;;1.02;;
55114;SDS011;41010;53.252;5.786;2023-07-20T02:57:58;1.30;;;1.08;;
55114;SDS011;41010;53.252;5.786;2023-07-20T03:00:25;1.40;;;1.10;;
55114;SDS011;41010;53.252;5.786;2023-07-20T03:02:52;2.08;;;1.20;;
55114;SDS011;41010;53.252;5.786;2023-07-20T03:05:20;1.75;;;0.80;;
55114;SDS011;41010;53.252;5.786;2023-07-20T03:07:50;1.77;;;0.90;;
55114;SDS011;41010;53.252;5.786;2023-07-20T03:10:17;1.75;;;1.48;;
55114;SDS011;41010;53.252;5.786;2023-07-20T03:12:45;1.20;;;1.00;;
55114;SDS011;41010;53.252;5.786;2023-07-20T03:15:13;2.75;;;1.10;;
55114;SDS011;41010;53.252;5.786;2023-07-20T03:17:40;2.55;;;1.10;;
55114;SDS011;41010;53.252;5.786;2023-07-20T03:20:08;1.27;;;1.10;;
55114;SDS011;41010;53.252;5.786;2023-07-20T03:22:37;1.38;;;1.00;;
55114;SDS011;41010;53.252;5.786;2023-07-20T03:25:05;1.90;;;1.20;;
55114;SDS011;41010;53.252;5.786;2023-07-20T03:27:33;1.92;;;1.27;;
55114;SDS011;41010;53.252;5.786;2023-07-20T03:30:00;1.40;;;1.13;;
55114;SDS011;41010;53.252;5.786;2023-07-20T03:32:28;1.15;;;1.00;;
55114;SDS011;41010;53.252;5.786;2023-07-20T03:34:56;1.52;;;1.17;;
55114;SDS011;41010;53.252;5.786;2023-07-20T03:37:23;2.47;;;1.23;;
55114;SDS011;41010;53.252;5.786;2023-07-20T03:39:50;1.98;;;1.30;;
55114;SDS011;41010;53.252;5.786;2023-07-20T03:42:17;4.70;;;1.33;;
55114;SDS011;41010;53.252;5.786;2023-07-20T03:44:45;3.05;;;1.20;;
55114;SDS011;41010;53.252;5.786;2023-07-20T03:47:12;1.58;;;1.08;;
55114;SDS011;41010;53.252;5.786;2023-07-20T03:49:41;3.08;;;1.10;;
55114;SDS011;41010;53.252;5.786;2023-07-20T03:52:08;1.40;;;1.17;;
55114;SDS011;41010;53.252;5.786;2023-07-20T03:54:36;1.88;;;1.00;;
55114;SDS011;41010;53.252;5.786;2023-07-20T03:57:03;1.90;;;1.20;;
55114;SDS011;41010;53.252;5.786;2023-07-20T03:59:30;1.73;;;1.17;;
55114;SDS011;41010;53.252;5.786;2023-07-20T04:01:56;2.63;;;1.27;;
55114;SDS011;41010;53.252;5.786;2023-07-20T04:04:24;1.50;;;1.05;;
55114;SDS011;41010;53.252;5.786;2023-07-20T04:06:52;2.65;;;1.13;;
55114;SDS011;41010;53.252;5.786;2023-07-20T04:09:19;1.63;;;1.20;;
55114;SDS011;41010;53.252;5.786;2023-07-20T04:11:47;1.60;;;1.00;;
55114;SDS011;41010;53.252;5.786;2023-07-20T04:14:14;1.40;;;1.00;;
55114;SDS011;41010;53.252;5.786;2023-07-20T04:16:41;1.55;;;1.10;;
55114;SDS011;41010;53.252;5.786;2023-07-20T04:19:09;2.22;;;1.35;;
55114;SDS011;41010;53.252;5.786;2023-07-20T04:21:39;2.80;;;1.00;;
55114;SDS011;41010;53.252;5.786;2023-07-20T04:24:08;1.38;;;0.70;;
55114;SDS011;41010;53.252;5.786;2023-07-20T04:26:35;2.95;;;0.90;;
55114;SDS011;41010;53.252;5.786;2023-07-20T04:29:03;4.88;;;0.90;;
55114;SDS011;41010;53.252;5.786;2023-07-20T04:31:30;1.67;;;0.85;;
55114;SDS011;41010;53.252;5.786;2023-07-20T04:33:58;2.65;;;0.90;;
55114;SDS011;41010;53.252;5.786;2023-07-20T04:36:25;2.58;;;0.80;;
55114;SDS011;41010;53.252;5.786;2023-07-20T04:38:53;3.22;;;1.00;;
55114;SDS011;41010;53.252;5.786;2023-07-20T04:41:21;2.40;;;0.70;;
55114;SDS011;41010;53.252;5.786;2023-07-20T04:43:50;2.30;;;0.90;;
55114;SDS011;41010;53.252;5.786;2023-07-20T04:46:17;1.02;;;0.73;;
55114;SDS011;41010;53.252;5.786;2023-07-20T04:48:46;5.43;;;0.65;;
55114;SDS011;41010;53.252;5.786;2023-07-20T04:51:14;4.43;;;0.80;;
55114;SDS011;41010;53.252;5.786;2023-07-20T04:53:42;2.67;;;0.80;;
55114;SDS011;41010;53.252;5.786;2023-07-20T04:56:09;2.08;;;0.70;;
55114;SDS011;41010;53.252;5.786;2023-07-20T04:58:38;9.27;;;0.90;;
55114;SDS011;41010;53.252;5.786;2023-07-20T05:01:05;2.75;;;1.10;;
55114;SDS011;41010;53.252;5.786;2023-07-20T05:03:32;2.10;;;0.88;;
55114;SDS011;41010;53.252;5.786;2023-07-20T05:05:59;1.75;;;0.77;;
55114;SDS011;41010;53.252;5.786;2023-07-20T05:08:27;2.80;;;0.90;;
55114;SDS011;41010;53.252;5.786;2023-07-20T05:10:54;2.17;;;0.90;;
55114;SDS011;41010;53.252;5.786;2023-07-20T05:13:21;2.65;;;1.10;;
55114;SDS011;41010;53.252;5.786;2023-07-20T05:15:52;4.03;;;1.02;;
55114;SDS011;41010;53.252;5.786;2023-07-20T05:18:21;2.28;;;1.00;;
55114;SDS011;41010;53.252;5.786;2023-07-20T05:20:48;2.47;;;0.88;;
55114;SDS011;41010;53.252;5.786;2023-07-20T05:23:17;1.38;;;0.90;;
55114;SDS011;41010;53.252;5.786;2023-07-20T05:25:44;2.58;;;0.90;;
55114;SDS011;41010;53.252;5.786;2023-07-20T05:28:11;3.33;;;0.95;;
55114;SDS011;41010;53.252;5.786;2023-07-20T05:30:39;4.35;;;0.90;;
55114;SDS011;41010;53.252;5.786;2023-07-20T05:33:08;2.22;;;0.80;;
55114;SDS011;41010;53.252;5.786;2023-07-20T05:35:36;4.40;;;0.80;;
55114;SDS011;41010;53.252;5.786;2023-07-20T05:38:03;1.35;;;0.60;;
55114;SDS011;41010;53.252;5.786;2023-07-20T05:40:31;2.15;;;1.02;;
55114;SDS011;41010;53.252;5.786;2023-07-20T05:42:59;2.50;;;0.80;;
55114;SDS011;41010;53.252;5.786;2023-07-20T05:45:26;1.13;;;0.40;;
55114;SDS011;41010;53.252;5.786;2023-07-20T05:47:53;2.78;;;0.60;;
55114;SDS011;41010;53.252;5.786;2023-07-20T05:50:22;0.73;;;0.40;;
55114;SDS011;41010;53.252;5.786;2023-07-20T05:52:52;0.88;;;0.50;;
55114;SDS011;41010;53.252;5.786;2023-07-20T05:55:19;0.30;;;0.30;;
55114;SDS011;41010;53.252;5.786;2023-07-20T05:57:46;1.63;;;0.50;;
55114;SDS011;41010;53.252;5.786;2023-07-20T06:00:15;2.25;;;0.47;;
55114;SDS011;41010;53.252;5.786;2023-07-20T06:02:44;0.80;;;0.45;;
55114;SDS011;41010;53.252;5.786;2023-07-20T06:05:13;2.80;;;0.90;;
55114;SDS011;41010;53.252;5.786;2023-07-20T06:07:42;4.03;;;0.60;;
55114;SDS011;41010;53.252;5.786;2023-07-20T06:10:09;2.15;;;0.60;;
55114;SDS011;41010;53.252;5.786;2023-07-20T06:12:36;1.38;;;0.65;;
55114;SDS011;41010;53.252;5.786;2023-07-20T06:15:04;0.75;;;0.52;;
55114;SDS011;41010;53.252;5.786;2023-07-20T06:17:32;1.55;;;0.52;;
55114;SDS011;41010;53.252;5.786;2023-07-20T06:19:59;3.63;;;0.63;;
55114;SDS011;41010;53.252;5.786;2023-07-20T06:22:27;3.63;;;0.77;;
55114;SDS011;41010;53.252;5.786;2023-07-20T06:24:55;2.92;;;0.93;;
55114;SDS011;41010;53.252;5.786;2023-07-20T06:27:22;4.80;;;1.10;;
55114;SDS011;41010;53.252;5.786;2023-07-20T06:29:50;1.88;;;0.93;;
55114;SDS011;41010;53.252;5.786;2023-07-20T06:32:17;2.80;;;1.00;;
55114;SDS011;41010;53.252;5.786;2023-07-20T06:34:44;2.15;;;1.05;;
55114;SDS011;41010;53.252;5.786;2023-07-20T06:37:12;4.50;;;1.20;;
55114;SDS011;41010;53.252;5.786;2023-07-20T06:39:39;1.73;;;0.98;;
55114;SDS011;41010;53.252;5.786;2023-07-20T06:42:08;5.90;;;1.75;;
55114;SDS011;41010;53.252;5.786;2023-07-20T06:44:35;2.40;;;1.10;;
55114;SDS011;41010;53.252;5.786;2023-07-20T06:47:03;2.22;;;1.00;;
55114;SDS011;41010;53.252;5.786;2023-07-20T06:49:30;2.55;;;1.15;;
55114;SDS011;41010;53.252;5.786;2023-07-20T06:51:57;2.63;;;1.20;;
55114;SDS011;41010;53.252;5.786;2023-07-20T06:54:24;2.47;;;1.08;;
55114;SDS011;41010;53.252;5.786;2023-07-20T06:56:52;2.50;;;1.02;;
55114;SDS011;41010;53.252;5.786;2023-07-20T06:59:21;4.90;;;1.15;;
55114;SDS011;41010;53.252;5.786;2023-07-20T07:01:49;2.00;;;1.00;;
55114;SDS011;41010;53.252;5.786;2023-07-20T07:04:16;2.03;;;1.20;;
55114;SDS011;41010;53.252;5.786;2023-07-20T07:06:43;3.95;;;1.33;;
55114;SDS011;41010;53.252;5.786;2023-07-20T07:09:11;2.70;;;1.15;;
55114;SDS011;41010;53.252;5.786;2023-07-20T07:11:38;4.30;;;1.50;;
55114;SDS011;41010;53.252;5.786;2023-07-20T07:14:05;7.22;;;1.08;;
55114;SDS011;41010;53.252;5.786;2023-07-20T07:16:34;3.08;;;1.13;;
55114;SDS011;41010;53.252;5.786;2023-07-20T07:19:01;3.92;;;1.20;;
55114;SDS011;41010;53.252;5.786;2023-07-20T07:21:28;2.95;;;1.40;;
55114;SDS011;41010;53.252;5.786;2023-07-20T07:23:55;2.00;;;1.05;;
55114;SDS011;41010;53.252;5.786;2023-07-20T07:26:24;4.28;;;1.25;;
55114;SDS011;41010;53.252;5.786;2023-07-20T07:28:52;2.63;;;1.25;;
55114;SDS011;41010;53.252;5.786;2023-07-20T07:31:19;3.85;;;1.40;;
55114;SDS011;41010;53.252;5.786;2023-07-20T07:33:49;5.80;;;1.17;;
55114;SDS011;41010;53.252;5.786;2023-07-20T07:36:17;6.65;;;1.50;;
55114;SDS011;41010;53.252;5.786;2023-07-20T07:38:44;3.20;;;0.93;;
55114;SDS011;41010;53.252;5.786;2023-07-20T07:41:12;4.03;;;0.93;;
55114;SDS011;41010;53.252;5.786;2023-07-20T07:43:39;5.20;;;1.08;;
55114;SDS011;41010;53.252;5.786;2023-07-20T07:46:06;1.70;;;0.82;;
55114;SDS011;41010;53.252;5.786;2023-07-20T07:48:33;3.10;;;1.13;;
55114;SDS011;41010;53.252;5.786;2023-07-20T07:51:02;4.65;;;1.13;;
55114;SDS011;41010;53.252;5.786;2023-07-20T07:53:29;4.25;;;0.85;;
55114;SDS011;41010;53.252;5.786;2023-07-20T07:55:57;2.50;;;0.82;;
55114;SDS011;41010;53.252;5.786;2023-07-20T07:58:25;2.10;;;0.98;;
55114;SDS011;41010;53.252;5.786;2023-07-20T08:00:52;4.20;;;1.27;;
55114;SDS011;41010;53.252;5.786;2023-07-20T08:03:20;4.20;;;0.85;;
55114;SDS011;41010;53.252;5.786;2023-07-20T08:05:49;1.20;;;0.70;;
55114;SDS011;41010;53.252;5.786;2023-07-20T08:08:18;2.67;;;0.70;;
55114;SDS011;41010;53.252;5.786;2023-07-20T08:10:45;3.45;;;1.00;;
55114;SDS011;41010;53.252;5.786;2023-07-20T08:13:13;2.05;;;0.75;;
55114;SDS011;41010;53.252;5.786;2023-07-20T08:15:45;0.85;;;0.47;;
55114;SDS011;41010;53.252;5.786;2023-07-20T08:18:13;3.20;;;0.80;;
55114;SDS011;41010;53.252;5.786;2023-07-20T08:20:43;3.92;;;0.90;;
55114;SDS011;41010;53.252;5.786;2023-07-20T08:23:10;3.10;;;0.80;;
55114;SDS011;41010;53.252;5.786;2023-07-20T08:25:38;3.88;;;0.88;;
55114;SDS011;41010;53.252;5.786;2023-07-20T08:28:09;1.77;;;0.70;;
55114;SDS011;41010;53.252;5.786;2023-07-20T08:30:40;4.20;;;0.70;;
55114;SDS011;41010;53.252;5.786;2023-07-20T08:33:07;1.20;;;0.68;;
55114;SDS011;41010;53.252;5.786;2023-07-20T08:35:35;2.53;;;0.80;;
55114;SDS011;41010;53.252;5.786;2023-07-20T08:38:02;2.70;;;0.73;;
55114;SDS011;41010;53.252;5.786;2023-07-20T08:40:30;1.15;;;0.60;;
55114;SDS011;41010;53.252;5.786;2023-07-20T08:42:59;1.30;;;0.60;;
55114;SDS011;41010;53.252;5.786;2023-07-20T08:45:27;1.63;;;0.77;;
55114;SDS011;41010;53.252;5.786;2023-07-20T08:47:56;1.58;;;0.57;;
55114;SDS011;41010;53.252;5.786;2023-07-20T08:50:24;0.82;;;0.60;;
55114;SDS011;41010;53.252;5.786;2023-07-20T08:52:52;0.75;;;0.60;;
55114;SDS011;41010;53.252;5.786;2023-07-20T08:55:20;1.10;;;0.68;;
55114;SDS011;41010;53.252;5.786;2023-07-20T08:57:48;2.83;;;0.70;;
55114;SDS011;41010;53.252;5.786;2023-07-20T09:00:18;1.65;;;0.63;;
55114;SDS011;41010;53.252;5.786;2023-07-20T09:02:48;3.10;;;0.68;;
55114;SDS011;41010;53.252;5.786;2023-07-20T09:05:16;2.00;;;0.70;;
55114;SDS011;41010;53.252;5.786;2023-07-20T09:07:44;1.27;;;0.60;;
55114;SDS011;41010;53.252;5.786;2023-07-20T09:10:11;1.08;;;0.82;;
55114;SDS011;41010;53.252;5.786;2023-07-20T09:12:39;1.00;;;0.50;;
55114;SDS011;41010;53.252;5.786;2023-07-20T09:15:07;1.42;;;0.65;;
55114;SDS011;41010;53.252;5.786;2023-07-20T09:17:36;1.55;;;0.70;;
55114;SDS011;41010;53.252;5.786;2023-07-20T09:20:04;2.40;;;0.68;;
55114;SDS011;41010;53.252;5.786;2023-07-20T09:22:34;2.30;;;0.77;;
55114;SDS011;41010;53.252;5.786;2023-07-20T09:25:01;2.28;;;0.70;;
55114;SDS011;41010;53.252;5.786;2023-07-20T09:27:34;1.88;;;0.77;;
55114;SDS011;41010;53.252;5.786;2023-07-20T09:30:02;0.73;;;0.60;;
55114;SDS011;41010;53.252;5.786;2023-07-20T09:32:32;1.02;;;0.70;;
55114;SDS011;41010;53.252;5.786;2023-07-20T09:35:06;1.88;;;0.73;;
55114;SDS011;41010;53.252;5.786;2023-07-20T09:37:34;3.78;;;0.77;;
55114;SDS011;41010;53.252;5.786;2023-07-20T09:40:01;1.52;;;0.70;;
55114;SDS011;41010;53.252;5.786;2023-07-20T09:42:29;2.40;;;0.80;;
55114;SDS011;41010;53.252;5.786;2023-07-20T09:44:56;1.80;;;0.80;;
55114;SDS011;41010;53.252;5.786;2023-07-20T09:47:23;1.98;;;0.60;;
55114;SDS011;41010;53.252;5.786;2023-07-20T09:49:57;2.95;;;0.60;;
55114;SDS011;41010;53.252;5.786;2023-07-20T09:52:26;1.67;;;0.75;;
55114;SDS011;41010;53.252;5.786;2023-07-20T09:54:54;2.83;;;0.80;;
55114;SDS011;41010;53.252;5.786;2023-07-20T09:57:22;2.45;;;0.85;;
55114;SDS011;41010;53.252;5.786;2023-07-20T09:59:49;2.65;;;0.80;;
55114;SDS011;41010;53.252;5.786;2023-07-20T10:02:20;1.20;;;0.60;;
55114;SDS011;41010;53.252;5.786;2023-07-20T10:04:48;0.98;;;0.60;;
55114;SDS011;41010;53.252;5.786;2023-07-20T10:07:18;2.35;;;0.90;;
55114;SDS011;41010;53.252;5.786;2023-07-20T10:09:49;3.47;;;0.68;;
55114;SDS011;41010;53.252;5.786;2023-07-20T10:12:17;1.75;;;0.80;;
55114;SDS011;41010;53.252;5.786;2023-07-20T10:14:51;1.42;;;0.70;;
55114;SDS011;41010;53.252;5.786;2023-07-20T10:19:47;1.38;;;0.70;;
55114;SDS011;41010;53.252;5.786;2023-07-20T10:22:17;2.05;;;0.85;;
55114;SDS011;41010;53.252;5.786;2023-07-20T10:24:46;7.25;;;0.95;;
55114;SDS011;41010;53.252;5.786;2023-07-20T10:27:16;1.08;;;0.68;;
55114;SDS011;41010;53.252;5.786;2023-07-20T10:29:43;1.45;;;0.80;;
55114;SDS011;41010;53.252;5.786;2023-07-20T10:32:10;2.25;;;0.80;;
55114;SDS011;41010;53.252;5.786;2023-07-20T10:34:38;2.97;;;0.77;;
55114;SDS011;41010;53.252;5.786;2023-07-20T10:37:06;1.98;;;0.90;;
55114;SDS011;41010;53.252;5.786;2023-07-20T10:39:33;2.63;;;0.85;;
55114;SDS011;41010;53.252;5.786;2023-07-20T10:42:01;2.42;;;0.70;;
55114;SDS011;41010;53.252;5.786;2023-07-20T10:44:30;1.35;;;0.80;;
55114;SDS011;41010;53.252;5.786;2023-07-20T10:47:00;3.15;;;1.00;;
55114;SDS011;41010;53.252;5.786;2023-07-20T10:49:28;1.33;;;0.80;;
55114;SDS011;41010;53.252;5.786;2023-07-20T10:51:56;1.25;;;0.70;;
55114;SDS011;41010;53.252;5.786;2023-07-20T10:54:33;4.75;;;0.85;;
55114;SDS011;41010;53.252;5.786;2023-07-20T10:59:45;1.92;;;0.90;;
55114;SDS011;41010;53.252;5.786;2023-07-20T11:02:17;2.33;;;0.70;;
55114;SDS011;41010;53.252;5.786;2023-07-20T11:04:45;1.77;;;0.90;;
55114;SDS011;41010;53.252;5.786;2023-07-20T11:07:15;1.50;;;0.80;;
55114;SDS011;41010;53.252;5.786;2023-07-20T11:09:42;1.60;;;0.98;;
55114;SDS011;41010;53.252;5.786;2023-07-20T11:12:10;1.08;;;0.80;;
55114;SDS011;41010;53.252;5.786;2023-07-20T11:14:40;2.97;;;1.02;;
55114;SDS011;41010;53.252;5.786;2023-07-20T11:17:12;3.08;;;0.85;;
55114;SDS011;41010;53.252;5.786;2023-07-20T11:19:40;2.20;;;0.73;;
55114;SDS011;41010;53.252;5.786;2023-07-20T11:22:07;1.33;;;0.80;;
55114;SDS011;41010;53.252;5.786;2023-07-20T11:24:37;2.53;;;1.00;;
55114;SDS011;41010;53.252;5.786;2023-07-20T11:27:05;2.28;;;0.80;;
55114;SDS011;41010;53.252;5.786;2023-07-20T11:29:34;1.13;;;0.68;;
55114;SDS011;41010;53.252;5.786;2023-07-20T11:32:02;3.83;;;0.90;;
55114;SDS011;41010;53.252;5.786;2023-07-20T11:34:31;2.10;;;0.98;;
55114;SDS011;41010;53.252;5.786;2023-07-20T11:36:59;2.13;;;1.08;;
55114;SDS011;41010;53.252;5.786;2023-07-20T11:39:26;1.80;;;0.80;;
55114;SDS011;41010;53.252;5.786;2023-07-20T11:41:54;1.63;;;0.90;;
55114;SDS011;41010;53.252;5.786;2023-07-20T11:44:22;2.03;;;1.13;;
55114;SDS011;41010;53.252;5.786;2023-07-20T11:46:59;1.77;;;0.80;;
55114;SDS011;41010;53.252;5.786;2023-07-20T11:49:26;1.50;;;0.90;;
55114;SDS011;41010;53.252;5.786;2023-07-20T11:51:55;1.83;;;0.85;;
55114;SDS011;41010;53.252;5.786;2023-07-20T11:54:23;2.60;;;0.98;;
55114;SDS011;41010;53.252;5.786;2023-07-20T11:56:53;2.15;;;0.90;;
55114;SDS011;41010;53.252;5.786;2023-07-20T11:59:21;1.33;;;0.90;;
55114;SDS011;41010;53.252;5.786;2023-07-20T12:01:49;4.55;;;0.85;;
55114;SDS011;41010;53.252;5.786;2023-07-20T12:04:16;2.00;;;1.02;;
55114;SDS011;41010;53.252;5.786;2023-07-20T12:06:44;2.17;;;1.10;;
55114;SDS011;41010;53.252;5.786;2023-07-20T12:09:14;2.08;;;0.88;;
55114;SDS011;41010;53.252;5.786;2023-07-20T12:11:43;1.10;;;0.75;;
55114;SDS011;41010;53.252;5.786;2023-07-20T12:14:11;1.05;;;0.90;;
55114;SDS011;41010;53.252;5.786;2023-07-20T12:16:38;1.25;;;0.93;;
55114;SDS011;41010;53.252;5.786;2023-07-20T12:19:06;1.60;;;1.00;;
55114;SDS011;41010;53.252;5.786;2023-07-20T12:21:33;1.70;;;0.80;;
55114;SDS011;41010;53.252;5.786;2023-07-20T12:24:01;3.75;;;0.90;;
55114;SDS011;41010;53.252;5.786;2023-07-20T12:26:30;2.40;;;1.05;;
55114;SDS011;41010;53.252;5.786;2023-07-20T12:28:58;2.40;;;1.00;;
55114;SDS011;41010;53.252;5.786;2023-07-20T12:31:26;1.40;;;0.88;;
55114;SDS011;41010;53.252;5.786;2023-07-20T12:33:56;2.97;;;0.82;;
55114;SDS011;41010;53.252;5.786;2023-07-20T12:36:23;1.58;;;0.70;;
55114;SDS011;41010;53.252;5.786;2023-07-20T12:38:51;1.80;;;0.90;;
55114;SDS011;41010;53.252;5.786;2023-07-20T12:41:18;1.23;;;0.90;;
55114;SDS011;41010;53.252;5.786;2023-07-20T12:43:47;1.20;;;0.80;;
55114;SDS011;41010;53.252;5.786;2023-07-20T12:46:13;2.03;;;1.00;;
55114;SDS011;41010;53.252;5.786;2023-07-20T12:48:40;1.30;;;0.98;;
55114;SDS011;41010;53.252;5.786;2023-07-20T12:51:08;2.60;;;0.90;;
55114;SDS011;41010;53.252;5.786;2023-07-20T12:53:37;1.15;;;0.80;;
55114;SDS011;41010;53.252;5.786;2023-07-20T12:56:04;1.65;;;0.90;;
55114;SDS011;41010;53.252;5.786;2023-07-20T12:58:32;0.93;;;0.70;;
55114;SDS011;41010;53.252;5.786;2023-07-20T13:01:01;0.88;;;0.80;;
55114;SDS011;41010;53.252;5.786;2023-07-20T13:03:28;1.02;;;0.80;;
55114;SDS011;41010;53.252;5.786;2023-07-20T13:05:55;1.50;;;1.00;;
55114;SDS011;41010;53.252;5.786;2023-07-20T13:08:23;1.77;;;0.77;;
55114;SDS011;41010;53.252;5.786;2023-07-20T13:10:52;1.17;;;0.77;;
55114;SDS011;41010;53.252;5.786;2023-07-20T13:13:19;1.27;;;1.00;;
55114;SDS011;41010;53.252;5.786;2023-07-20T13:15:46;1.73;;;0.90;;
55114;SDS011;41010;53.252;5.786;2023-07-20T13:18:15;1.63;;;1.10;;
55114;SDS011;41010;53.252;5.786;2023-07-20T13:20:43;2.40;;;1.00;;
55114;SDS011;41010;53.252;5.786;2023-07-20T13:23:11;1.10;;;1.00;;
55114;SDS011;41010;53.252;5.786;2023-07-20T13:25:38;1.13;;;0.93;;
55114;SDS011;41010;53.252;5.786;2023-07-20T13:28:05;1.00;;;0.90;;
55114;SDS011;41010;53.252;5.786;2023-07-20T13:30:33;1.80;;;1.27;;
55114;SDS011;41010;53.252;5.786;2023-07-20T13:33:00;1.45;;;0.80;;
55114;SDS011;41010;53.252;5.786;2023-07-20T13:35:29;2.55;;;1.00;;
55114;SDS011;41010;53.252;5.786;2023-07-20T13:37:56;1.27;;;1.00;;
55114;SDS011;41010;53.252;5.786;2023-07-20T13:40:23;1.23;;;0.95;;
55114;SDS011;41010;53.252;5.786;2023-07-20T13:42:51;1.30;;;1.20;;
55114;SDS011;41010;53.252;5.786;2023-07-20T13:45:18;1.77;;;0.95;;
55114;SDS011;41010;53.252;5.786;2023-07-20T13:47:45;2.35;;;0.82;;
55114;SDS011;41010;53.252;5.786;2023-07-20T13:50:12;1.13;;;0.98;;
55114;SDS011;41010;53.252;5.786;2023-07-20T13:52:41;1.33;;;0.90;;
55114;SDS011;41010;53.252;5.786;2023-07-20T13:55:08;1.75;;;1.10;;
55114;SDS011;41010;53.252;5.786;2023-07-20T13:57:36;3.33;;;1.15;;
55114;SDS011;41010;53.252;5.786;2023-07-20T14:00:03;1.13;;;1.00;;
55114;SDS011;41010;53.252;5.786;2023-07-20T14:02:33;1.80;;;1.20;;
55114;SDS011;41010;53.252;5.786;2023-07-20T14:05:01;1.38;;;1.00;;
55114;SDS011;41010;53.252;5.786;2023-07-20T14:07:29;1.58;;;1.05;;
55114;SDS011;41010;53.252;5.786;2023-07-20T14:09:57;1.60;;;1.08;;
55114;SDS011;41010;53.252;5.786;2023-07-20T14:12:25;1.67;;;1.10;;
55114;SDS011;41010;53.252;5.786;2023-07-20T14:14:53;1.42;;;1.08;;
55114;SDS011;41010;53.252;5.786;2023-07-20T14:17:20;0.82;;;0.82;;
55114;SDS011;41010;53.252;5.786;2023-07-20T14:19:47;1.70;;;0.90;;
55114;SDS011;41010;53.252;5.786;2023-07-20T14:22:16;1.35;;;0.93;;
55114;SDS011;41010;53.252;5.786;2023-07-20T14:24:43;1.15;;;0.80;;
55114;SDS011;41010;53.252;5.786;2023-07-20T14:27:12;1.55;;;0.80;;
55114;SDS011;41010;53.252;5.786;2023-07-20T14:29:39;1.20;;;0.98;;
55114;SDS011;41010;53.252;5.786;2023-07-20T14:32:06;2.03;;;1.30;;
55114;SDS011;41010;53.252;5.786;2023-07-20T14:34:34;1.95;;;1.10;;
55114;SDS011;41010;53.252;5.786;2023-07-20T14:37:01;1.30;;;1.15;;
55114;SDS011;41010;53.252;5.786;2023-07-20T14:39:29;1.42;;;0.90;;
55114;SDS011;41010;53.252;5.786;2023-07-20T14:41:56;1.02;;;0.90;;
55114;SDS011;41010;53.252;5.786;2023-07-20T14:44:25;1.83;;;1.13;;
55114;SDS011;41010;53.252;5.786;2023-07-20T14:46:53;1.02;;;0.95;;
55114;SDS011;41010;53.252;5.786;2023-07-20T14:49:20;1.10;;;1.00;;
55114;SDS011;41010;53.252;5.786;2023-07-20T14:51:47;1.92;;;1.08;;
55114;SDS011;41010;53.252;5.786;2023-07-20T14:54:15;1.40;;;1.00;;
55114;SDS011;41010;53.252;5.786;2023-07-20T14:56:48;1.70;;;1.08;;
55114;SDS011;41010;53.252;5.786;2023-07-20T14:59:16;1.30;;;1.10;;
55114;SDS011;41010;53.252;5.786;2023-07-20T15:01:45;1.00;;;0.90;;